createdAt,value
2022-08-05T00:00:16.454Z,80.54
2022-08-05T00:01:20.986Z,80.74
2022-08-05T00:02:15.957Z,81.04
2022-08-05T00:03:15.531Z,81.15
2022-08-05T00:04:14.882Z,81.45
2022-08-05T00:05:27.151Z,81.35
2022-08-05T00:06:29.320Z,81.24
2022-08-05T00:07:59.425Z,81.48
2022-08-05T00:08:32.901Z,81.48
2022-08-05T00:09:19.737Z,81.59
2022-08-05T00:10:14.799Z,81.59
2022-08-05T00:11:20.505Z,81.68
2022-08-05T00:12:15.914Z,81.79
2022-08-05T00:13:18.533Z,81.79
2022-08-05T00:14:17.066Z,81.99
2022-08-05T00:15:56.384Z,82.18
2022-08-05T00:16:15.776Z,82.39
2022-08-05T00:17:18.781Z,82.39
2022-08-05T00:18:21.706Z,82.59
2022-08-05T00:19:15.716Z,82.79
2022-08-05T00:20:14.735Z,82.79
2022-08-05T00:21:15.699Z,83.03
2022-08-05T00:22:14.682Z,83.13
2022-08-05T00:23:14.667Z,83.43
2022-08-05T00:24:16.338Z,83.63
2022-08-05T00:25:14.660Z,83.63
2022-08-05T00:26:14.647Z,83.83
2022-08-05T00:27:16.874Z,84.13
2022-08-05T00:28:14.603Z,84.33
2022-08-05T00:29:14.611Z,84.53
2022-08-05T00:30:14.585Z,84.63
2022-08-05T00:31:14.583Z,84.88
2022-08-05T00:32:15.377Z,85.17
2022-08-05T00:34:41.985Z,85.38
2022-08-05T00:34:54.613Z,85.58
2022-08-05T00:35:15.545Z,85.78
2022-08-05T00:36:16.400Z,85.97
2022-08-05T00:37:15.540Z,85.97
2022-08-05T00:38:14.494Z,86.18
2022-08-05T00:39:14.528Z,86.38
2022-08-05T00:40:14.537Z,87.68
2022-08-05T00:41:14.508Z,89.79
2022-08-05T00:42:31.675Z,91.19
2022-08-05T00:43:15.715Z,91.94
2022-08-05T00:44:14.496Z,92.08
2022-08-05T00:45:14.613Z,92.89
2022-08-05T00:46:14.619Z,93.93
2022-08-05T00:47:14.459Z,94.74
2022-08-05T00:48:14.385Z,95.44
2022-08-05T00:49:14.677Z,95.95
2022-08-05T00:50:14.423Z,96.50
2022-08-05T00:51:50.978Z,96.80
2022-08-05T00:52:15.413Z,97.09
2022-08-05T00:53:45.465Z,97.20
2022-08-05T00:54:15.420Z,97.40
2022-08-05T00:55:14.939Z,97.55
2022-08-05T00:56:14.450Z,97.85
2022-08-05T00:57:15.724Z,97.95
2022-08-05T00:58:15.622Z,98.15
2022-08-05T00:59:14.370Z,98.45
2022-08-05T01:00:14.541Z,98.55
2022-08-05T01:01:15.064Z,98.65
2022-08-05T01:02:14.301Z,98.70
2022-08-05T01:03:22.750Z,98.80
2022-08-05T01:04:15.827Z,99.00
2022-08-05T01:05:14.325Z,99.20
2022-08-05T01:06:15.350Z,99.30
2022-08-05T01:07:14.331Z,99.30
2022-08-05T01:08:41.929Z,99.00
2022-08-05T01:09:15.252Z,99.10
2022-08-05T01:10:14.185Z,99.00
2022-08-05T01:11:14.236Z,99.20
2022-08-05T01:12:18.477Z,99.30
2022-08-05T01:13:19.444Z,99.51
2022-08-05T01:14:16.917Z,99.71
2022-08-05T01:15:35.421Z,99.80
2022-08-05T01:16:21.109Z,99.75
2022-08-05T01:17:15.772Z,99.95
2022-08-05T01:18:14.134Z,99.99
2022-08-05T01:19:14.483Z,99.99
2022-08-05T01:21:38.098Z,99.99
2022-08-05T01:22:52.080Z,99.99
2022-08-05T01:23:36.276Z,99.99
2022-08-05T01:24:36.206Z,99.99
2022-08-05T01:25:40.690Z,99.99
2022-08-05T01:26:37.263Z,99.99
2022-08-05T01:27:37.197Z,99.99
2022-08-05T01:28:39.429Z,99.99
2022-08-05T01:29:36.314Z,99.99
2022-08-05T01:30:36.269Z,99.99
2022-08-05T01:31:42.757Z,99.99
2022-08-05T01:32:37.309Z,99.99
2022-08-05T01:33:37.356Z,99.99
2022-08-05T01:34:36.173Z,99.99
2022-08-05T01:35:51.030Z,99.99
2022-08-05T01:36:37.097Z,99.99
2022-08-05T01:37:37.206Z,99.99
2022-08-05T01:38:37.253Z,99.99
2022-08-05T01:39:47.023Z,99.99
2022-08-05T01:40:37.981Z,99.99
2022-08-05T01:41:36.260Z,99.99
2022-08-05T01:42:37.009Z,99.99
2022-08-05T01:43:36.200Z,99.99
2022-08-05T01:44:36.020Z,99.99
2022-08-05T01:45:43.155Z,99.99
2022-08-05T01:46:41.942Z,99.99
2022-08-05T01:47:39.596Z,99.99
2022-08-05T01:48:36.966Z,99.99
2022-08-05T01:50:02.020Z,99.99
2022-08-05T01:50:36.882Z,99.99
2022-08-05T01:51:35.936Z,99.99
2022-08-05T01:52:36.098Z,99.99
2022-08-05T01:53:54.621Z,99.99
2022-08-05T01:55:50.057Z,99.99
2022-08-05T01:58:09.943Z,99.99
2022-08-05T01:58:12.772Z,99.99
2022-08-05T01:58:51.422Z,99.99
2022-08-05T01:59:49.958Z,99.99
2022-08-05T02:00:49.948Z,99.99
2022-08-05T02:01:50.008Z,99.99
2022-08-05T02:02:53.693Z,99.99
2022-08-05T02:03:51.101Z,99.99
2022-08-05T02:04:50.235Z,99.99
2022-08-05T02:05:49.912Z,99.99
2022-08-05T02:06:50.025Z,99.99
2022-08-05T02:08:01.118Z,99.99
2022-08-05T02:08:58.193Z,99.99
2022-08-05T02:09:50.975Z,99.99
2022-08-05T02:10:49.885Z,99.99
2022-08-05T02:11:52.320Z,99.99
2022-08-05T02:12:51.048Z,99.99
2022-08-05T02:13:53.971Z,99.99
2022-08-05T02:14:50.098Z,99.99
2022-08-05T02:15:50.323Z,99.99
2022-08-05T02:16:52.795Z,99.99
2022-08-05T02:18:30.964Z,99.99
2022-08-05T02:18:51.054Z,99.99
2022-08-05T02:19:50.002Z,99.99
2022-08-05T02:20:50.901Z,99.99
2022-08-05T02:21:50.644Z,99.99
2022-08-05T02:22:49.807Z,99.99
2022-08-05T02:23:50.122Z,99.99
2022-08-05T02:24:51.393Z,99.99
2022-08-05T02:25:50.639Z,99.99
2022-08-05T02:26:53.996Z,99.99
2022-08-05T02:29:04.031Z,99.99
2022-08-05T02:30:03.793Z,99.99
2022-08-05T02:31:04.126Z,99.99
2022-08-05T02:32:04.716Z,99.99
2022-08-05T02:33:03.997Z,99.99
2022-08-05T02:34:03.816Z,99.99
2022-08-05T02:35:13.375Z,99.99
2022-08-05T02:36:04.779Z,99.99
2022-08-05T02:37:04.342Z,99.99
2022-08-05T02:38:03.956Z,99.99
2022-08-05T02:39:03.882Z,99.99
2022-08-05T02:40:04.881Z,99.99
2022-08-05T02:41:06.389Z,99.99
2022-08-05T02:42:04.724Z,99.99
2022-08-05T02:43:03.742Z,99.99
2022-08-05T02:44:11.192Z,99.99
2022-08-05T02:45:05.482Z,99.99
2022-08-05T02:46:04.070Z,99.99
2022-08-05T02:47:04.142Z,99.99
2022-08-05T02:48:11.471Z,99.99
2022-08-05T02:49:04.656Z,99.99
2022-08-05T02:50:03.644Z,99.99
2022-08-05T02:51:04.487Z,99.99
2022-08-05T02:52:04.864Z,99.99
2022-08-05T02:53:03.713Z,99.99
2022-08-05T02:54:04.662Z,99.99
2022-08-05T02:55:05.484Z,99.99
2022-08-05T02:58:10.336Z,99.99
2022-08-05T02:58:26.742Z,99.99
2022-08-05T02:59:27.068Z,99.99
2022-08-05T03:00:25.341Z,99.99
2022-08-05T03:01:24.238Z,99.99
2022-08-05T03:02:24.131Z,99.99
2022-08-05T03:03:24.083Z,99.99
2022-08-05T03:04:24.083Z,99.99
2022-08-05T03:06:54.182Z,99.99
2022-08-05T03:06:56.733Z,99.99
2022-08-05T03:08:00.893Z,99.99
2022-08-05T03:08:29.575Z,99.99
2022-08-05T03:09:36.153Z,99.99
2022-08-05T03:10:25.253Z,99.99
2022-08-05T03:11:56.678Z,99.99
2022-08-05T03:12:24.984Z,99.99
2022-08-05T03:13:27.614Z,99.99
2022-08-05T03:14:24.987Z,99.99
2022-08-05T03:15:24.437Z,99.99
2022-08-05T03:16:23.941Z,99.99
2022-08-05T03:17:24.147Z,99.99
2022-08-05T03:18:29.903Z,99.99
2022-08-05T03:19:34.526Z,99.99
2022-08-05T03:20:25.100Z,99.99
2022-08-05T03:21:23.879Z,99.99
2022-08-05T03:22:32.414Z,99.99
2022-08-05T03:23:24.871Z,99.99
2022-08-05T03:24:29.334Z,99.99
2022-08-05T03:26:03.765Z,99.99
2022-08-05T03:26:31.682Z,99.99
2022-08-05T03:27:25.101Z,99.99
2022-08-05T03:28:24.807Z,99.99
2022-08-05T03:29:23.829Z,99.99
2022-08-05T03:30:33.523Z,99.99
2022-08-05T03:31:56.162Z,99.99
2022-08-05T03:32:30.955Z,99.99
2022-08-05T03:33:24.768Z,99.99
2022-08-05T03:34:24.744Z,99.99
2022-08-05T03:35:23.737Z,99.99
2022-08-05T03:36:30.193Z,99.99
2022-08-05T03:37:24.951Z,99.99
2022-08-05T03:38:32.887Z,99.99
2022-08-05T03:39:27.264Z,99.99
2022-08-05T03:40:31.226Z,99.99
2022-08-05T03:41:24.693Z,99.99
2022-08-05T03:42:23.629Z,99.99
2022-08-05T03:44:08.881Z,99.99
2022-08-05T03:44:24.642Z,99.99
2022-08-05T03:45:23.837Z,99.99
2022-08-05T03:46:23.795Z,99.99
2022-08-05T03:47:25.082Z,99.99
2022-08-05T03:48:24.569Z,99.99
2022-08-05T03:49:24.223Z,99.99
2022-08-05T03:50:24.551Z,99.99
2022-08-05T03:52:50.201Z,99.99
2022-08-05T03:52:50.418Z,99.99
2022-08-05T03:55:50.505Z,99.99
2022-08-05T03:55:53.093Z,99.99
2022-08-05T03:56:04.164Z,99.99
2022-08-05T03:56:30.677Z,99.99
2022-08-05T03:57:35.024Z,99.99
2022-08-05T03:58:28.935Z,99.99
2022-08-05T03:59:24.519Z,99.99
2022-08-05T04:00:23.454Z,99.99
2022-08-05T04:01:23.487Z,99.99
2022-08-05T04:02:38.646Z,99.99
2022-08-05T04:03:28.527Z,99.99
2022-08-05T04:04:23.414Z,99.99
2022-08-05T04:05:23.440Z,99.99
2022-08-05T04:06:23.386Z,99.99
2022-08-05T04:07:24.904Z,99.99
2022-08-05T04:08:35.026Z,99.99
2022-08-05T04:09:26.431Z,99.99
2022-08-05T04:10:23.381Z,99.99
2022-08-05T04:11:23.341Z,99.99
2022-08-05T04:12:23.651Z,99.99
2022-08-05T04:13:23.313Z,99.99
2022-08-05T04:14:29.978Z,99.99
2022-08-05T04:15:24.645Z,99.99
2022-08-05T04:16:25.005Z,99.99
2022-08-05T04:17:23.544Z,99.99
2022-08-05T04:18:25.569Z,99.99
2022-08-05T04:19:23.354Z,99.99
2022-08-05T04:20:23.412Z,99.99
2022-08-05T04:22:09.257Z,99.99
2022-08-05T04:22:24.221Z,99.99
2022-08-05T04:24:05.416Z,99.99
2022-08-05T04:24:24.193Z,99.99
2022-08-05T04:25:38.439Z,99.99
2022-08-05T04:26:24.185Z,99.99
2022-08-05T04:27:33.129Z,99.99
2022-08-05T04:28:31.064Z,99.99
2022-08-05T04:29:24.133Z,99.99
2022-08-05T04:30:23.128Z,99.99
2022-08-05T04:31:23.094Z,99.99
2022-08-05T04:32:31.152Z,99.99
2022-08-05T04:34:19.341Z,99.99
2022-08-05T04:34:32.455Z,99.99
2022-08-05T04:35:24.077Z,99.99
2022-08-05T04:36:46.471Z,99.99
2022-08-05T04:38:02.127Z,99.99
2022-08-05T04:38:39.417Z,99.99
2022-08-05T04:39:24.228Z,99.99
2022-08-05T04:40:23.038Z,99.99
2022-08-05T04:41:36.610Z,99.99
2022-08-05T04:42:25.409Z,99.99
2022-08-05T04:43:22.986Z,99.99
2022-08-05T04:44:30.143Z,99.99
2022-08-05T04:45:48.625Z,99.99
2022-08-05T04:46:28.034Z,99.99
2022-08-05T04:47:23.143Z,99.99
2022-08-05T04:48:27.470Z,99.99
2022-08-05T04:49:24.702Z,99.99
2022-08-05T04:50:34.320Z,99.99
2022-08-05T04:51:23.883Z,99.99
2022-08-05T04:52:22.906Z,99.99
2022-08-05T04:53:22.863Z,99.99
2022-08-05T04:54:22.865Z,99.99
2022-08-05T04:55:34.020Z,99.99
2022-08-05T04:56:34.261Z,99.99
2022-08-05T04:57:24.246Z,99.99
2022-08-05T04:58:23.816Z,99.99
2022-08-05T04:59:33.541Z,99.99
2022-08-05T05:00:23.920Z,99.99
2022-08-05T05:02:06.022Z,99.99
2022-08-05T05:02:41.081Z,99.99
2022-08-05T05:03:23.839Z,99.99
2022-08-05T05:04:22.850Z,99.99
2022-08-05T05:05:28.565Z,99.99
2022-08-05T05:06:39.594Z,99.99
2022-08-05T05:07:29.248Z,99.99
2022-08-05T05:08:30.242Z,99.99
2022-08-05T05:09:23.698Z,99.99
2022-08-05T05:10:22.687Z,99.99
2022-08-05T05:11:22.678Z,99.99
2022-08-05T05:12:23.666Z,99.99
2022-08-05T05:13:22.680Z,99.99
2022-08-05T05:14:28.145Z,99.99
2022-08-05T05:15:56.251Z,99.99
2022-08-05T05:16:23.631Z,99.99
2022-08-05T05:17:55.409Z,99.99
2022-08-05T05:18:28.267Z,99.99
2022-08-05T05:19:27.333Z,99.99
2022-08-05T05:20:23.859Z,99.99
2022-08-05T05:21:23.566Z,99.99
2022-08-05T05:22:26.091Z,99.99
2022-08-05T05:23:22.551Z,99.99
2022-08-05T05:24:22.547Z,99.99
2022-08-05T05:25:40.421Z,99.99
2022-08-05T05:26:28.370Z,99.99
2022-08-05T05:27:23.701Z,99.99
2022-08-05T05:28:22.480Z,99.99
2022-08-05T05:29:22.494Z,99.99
2022-08-05T05:30:29.093Z,99.99
2022-08-05T05:31:23.468Z,99.99
2022-08-05T05:32:22.466Z,99.99
2022-08-05T05:33:23.358Z,99.99
2022-08-05T05:34:27.048Z,99.99
2022-08-05T05:35:22.451Z,99.99
2022-08-05T05:36:22.389Z,99.99
2022-08-05T05:37:22.643Z,99.99
2022-08-05T05:38:27.582Z,99.99
2022-08-05T05:39:22.432Z,99.99
2022-08-05T05:40:22.380Z,99.99
2022-08-05T05:41:22.339Z,99.99
2022-08-05T05:42:22.342Z,99.99
2022-08-05T05:43:54.645Z,99.99
2022-08-05T05:44:35.545Z,99.99
2022-08-05T05:45:23.290Z,99.99
2022-08-05T05:46:22.306Z,99.99
2022-08-05T05:47:22.408Z,99.99
2022-08-05T05:48:27.521Z,99.99
2022-08-05T05:49:22.965Z,99.99
2022-08-05T05:50:22.290Z,99.99
2022-08-05T05:51:22.257Z,99.99
2022-08-05T05:52:28.392Z,99.99
2022-08-05T05:53:23.382Z,99.99
2022-08-05T05:54:22.224Z,99.99
2022-08-05T05:55:23.194Z,99.99
2022-08-05T05:56:26.108Z,99.99
2022-08-05T05:57:23.236Z,99.99
2022-08-05T05:58:22.159Z,99.99
2022-08-05T05:59:23.164Z,99.99
2022-08-05T06:00:27.746Z,99.99
2022-08-05T06:01:23.348Z,99.99
2022-08-05T06:02:32.793Z,99.99
2022-08-05T06:03:40.064Z,99.99
2022-08-05T06:04:23.194Z,99.99
2022-08-05T06:05:22.120Z,99.99
2022-08-05T06:06:22.438Z,99.99
2022-08-05T06:07:22.513Z,99.99
2022-08-05T06:08:32.240Z,99.99
2022-08-05T06:09:26.490Z,99.99
2022-08-05T06:10:23.778Z,99.99
2022-08-05T06:11:22.034Z,99.99
2022-08-05T06:12:21.999Z,99.99
2022-08-05T06:13:23.643Z,99.99
2022-08-05T06:14:21.987Z,99.99
2022-08-05T06:15:24.162Z,99.99
2022-08-05T06:16:28.358Z,99.99
2022-08-05T06:17:24.323Z,99.99
2022-08-05T06:18:21.966Z,99.99
2022-08-05T06:19:33.947Z,99.99
2022-08-05T06:20:22.938Z,99.99
2022-08-05T06:21:21.919Z,99.99
2022-08-05T06:22:21.920Z,99.99
2022-08-05T06:23:21.886Z,99.99
2022-08-05T06:24:25.666Z,99.99
2022-08-05T06:25:25.028Z,99.99
2022-08-05T06:26:24.986Z,99.99
2022-08-05T06:28:12.820Z,99.99
2022-08-05T06:28:23.215Z,99.99
2022-08-05T06:29:25.411Z,99.99
2022-08-05T06:30:22.802Z,99.99
2022-08-05T06:31:22.603Z,99.99
2022-08-05T06:32:26.025Z,99.99
2022-08-05T06:33:33.255Z,99.99
2022-08-05T06:34:22.782Z,99.99
2022-08-05T06:36:06.907Z,99.99
2022-08-05T06:36:25.980Z,99.99
2022-08-05T06:37:57.746Z,99.99
2022-08-05T06:38:35.816Z,99.99
2022-08-05T06:39:24.514Z,99.99
2022-08-05T06:40:21.702Z,99.99
2022-08-05T06:41:22.700Z,99.99
2022-08-05T06:42:21.677Z,99.99
2022-08-05T06:43:58.457Z,99.99
2022-08-05T06:44:22.688Z,99.99
2022-08-05T06:45:44.753Z,99.99
2022-08-05T06:46:22.671Z,99.99
2022-08-05T06:48:11.590Z,99.99
2022-08-05T06:48:54.673Z,99.99
2022-08-05T06:50:01.128Z,99.99
2022-08-05T06:50:22.725Z,99.99
2022-08-05T06:51:26.719Z,99.99
2022-08-05T06:52:36.655Z,99.99
2022-08-05T06:53:27.844Z,99.99
2022-08-05T06:54:25.815Z,99.99
2022-08-05T06:55:21.526Z,99.99
2022-08-05T06:56:26.072Z,99.99
2022-08-05T06:57:57.303Z,99.99
2022-08-05T06:58:34.922Z,99.99
2022-08-05T06:59:22.530Z,99.99
2022-08-05T07:00:24.551Z,99.99
2022-08-05T07:01:21.589Z,99.99
2022-08-05T07:02:22.719Z,99.99
2022-08-05T07:03:21.487Z,99.99
2022-08-05T07:04:22.460Z,99.99
2022-08-05T07:05:27.629Z,99.99
2022-08-05T07:06:22.447Z,99.74
2022-08-05T07:07:24.028Z,99.65
2022-08-05T07:08:22.404Z,99.70
2022-08-05T07:09:21.392Z,99.70
2022-08-05T07:10:21.472Z,99.50
2022-08-05T07:11:25.567Z,98.79
2022-08-05T07:12:21.347Z,98.69
2022-08-05T07:13:46.388Z,98.19
2022-08-05T07:14:28.821Z,97.28
2022-08-05T07:15:34.628Z,97.38
2022-08-05T07:18:01.614Z,97.49
2022-08-05T07:18:01.903Z,97.38
2022-08-05T07:18:29.094Z,97.28
2022-08-05T07:19:57.991Z,96.88
2022-08-05T07:20:39.101Z,96.78
2022-08-05T07:21:25.975Z,96.78
2022-08-05T07:22:21.247Z,96.78
2022-08-05T07:23:26.255Z,96.68
2022-08-05T07:24:22.237Z,96.98
2022-08-05T07:25:23.554Z,96.68
2022-08-05T07:26:24.957Z,96.68
2022-08-05T07:27:21.624Z,96.78
2022-08-05T07:28:21.173Z,97.18
2022-08-05T07:30:22.236Z,97.18
2022-08-05T07:30:29.991Z,97.08
2022-08-05T07:31:41.024Z,97.03
2022-08-05T07:32:26.089Z,97.03
2022-08-05T07:33:21.151Z,96.83
2022-08-05T07:34:27.440Z,96.93
2022-08-05T07:36:04.400Z,96.23
2022-08-05T07:36:22.107Z,96.03
2022-08-05T07:37:21.068Z,95.73
2022-08-05T07:38:33.775Z,95.73
2022-08-05T07:39:50.403Z,95.83
2022-08-05T07:40:32.151Z,95.93
2022-08-05T07:42:08.331Z,95.62
2022-08-05T07:42:33.819Z,95.53
2022-08-05T07:43:22.035Z,94.92
2022-08-05T07:44:21.017Z,94.52
2022-08-05T07:45:56.451Z,94.42
2022-08-05T07:46:25.256Z,94.72
2022-08-05T07:47:21.053Z,94.72
2022-08-05T07:49:02.363Z,94.72
2022-08-05T07:49:21.981Z,94.32
2022-08-05T07:50:28.889Z,93.61
2022-08-05T07:51:23.742Z,93.21
2022-08-05T07:52:23.847Z,93.41
2022-08-05T07:53:20.921Z,93.81
2022-08-05T07:54:20.964Z,94.01
2022-08-05T07:55:44.510Z,93.71
2022-08-05T07:57:00.543Z,93.41
2022-08-05T07:57:57.365Z,93.51
2022-08-05T07:58:57.503Z,93.21
2022-08-05T07:59:31.066Z,93.11
2022-08-05T08:00:21.862Z,92.10
2022-08-05T08:01:22.206Z,92.10
2022-08-05T08:02:20.842Z,92.20
2022-08-05T08:03:21.820Z,91.70
2022-08-05T08:04:34.309Z,91.80
2022-08-05T08:05:21.802Z,91.90
2022-08-05T08:06:20.785Z,92.00
2022-08-05T08:07:22.666Z,91.85
2022-08-05T08:08:20.908Z,92.25
2022-08-05T08:09:20.780Z,92.65
2022-08-05T08:10:20.909Z,92.75
2022-08-05T08:11:27.723Z,92.75
2022-08-05T08:12:32.003Z,91.94
2022-08-05T08:13:28.816Z,91.64
2022-08-05T08:14:21.740Z,91.94
2022-08-05T08:15:37.146Z,91.64
2022-08-05T08:16:35.082Z,92.45
2022-08-05T08:17:21.957Z,93.15
2022-08-05T08:18:21.253Z,93.05
2022-08-05T08:20:22.726Z,93.01
2022-08-05T08:20:43.222Z,92.91
2022-08-05T08:21:21.600Z,93.11
2022-08-05T08:22:20.587Z,92.80
2022-08-05T08:24:02.054Z,92.76
2022-08-05T08:24:21.578Z,92.96
2022-08-05T08:25:26.762Z,92.26
2022-08-05T08:26:26.579Z,91.25
2022-08-05T08:27:22.049Z,91.35
2022-08-05T08:28:36.697Z,91.86
2022-08-05T08:30:03.621Z,91.35
2022-08-05T08:30:33.983Z,90.85
2022-08-05T08:31:21.500Z,91.05
2022-08-05T08:32:21.562Z,91.82
2022-08-05T08:33:21.492Z,91.11
2022-08-05T08:34:30.867Z,91.41
2022-08-05T08:35:21.479Z,90.34
2022-08-05T08:36:38.708Z,90.15
2022-08-05T08:37:27.730Z,90.55
2022-08-05T08:38:35.425Z,90.65
2022-08-05T08:39:21.542Z,90.55
2022-08-05T08:40:20.439Z,90.65
2022-08-05T08:41:20.394Z,90.05
2022-08-05T08:42:38.345Z,89.84
2022-08-05T08:45:17.052Z,89.84
2022-08-05T08:45:20.788Z,89.54
2022-08-05T08:45:27.083Z,89.30
2022-08-05T08:46:21.344Z,89.10
2022-08-05T08:47:48.117Z,89.30
2022-08-05T08:48:42.895Z,89.10
2022-08-05T08:50:23.287Z,89.00
2022-08-05T08:50:33.017Z,89.36
2022-08-05T08:52:02.195Z,88.55
2022-08-05T08:52:21.351Z,88.65
2022-08-05T08:53:20.318Z,88.45
2022-08-05T08:54:22.037Z,87.04
2022-08-05T08:56:02.136Z,87.29
2022-08-05T08:56:22.198Z,88.09
2022-08-05T08:57:42.133Z,88.70
2022-08-05T08:58:37.223Z,88.70
2022-08-05T08:59:21.292Z,88.79
2022-08-05T09:00:20.337Z,88.39
2022-08-05T09:01:20.340Z,87.69
2022-08-05T09:02:20.152Z,87.59
2022-08-05T09:03:20.183Z,88.13
2022-08-05T09:04:20.279Z,88.64
2022-08-05T09:05:38.707Z,87.73
2022-08-05T09:06:24.185Z,87.33
2022-08-05T09:07:29.184Z,87.53
2022-08-05T09:08:21.122Z,87.67
2022-08-05T09:09:21.108Z,87.77
2022-08-05T09:10:20.121Z,88.07
2022-08-05T09:11:51.911Z,88.22
2022-08-05T09:12:27.206Z,88.22
2022-08-05T09:13:21.042Z,87.55
2022-08-05T09:14:56.315Z,88.16
2022-08-05T09:15:21.140Z,89.06
2022-08-05T09:16:20.225Z,89.26
2022-08-05T09:17:42.410Z,88.86
2022-08-05T09:18:21.285Z,89.77
2022-08-05T09:19:20.288Z,90.48
2022-08-05T09:20:37.502Z,91.08
2022-08-05T09:22:21.852Z,91.99
2022-08-05T09:22:31.969Z,92.43
2022-08-05T09:23:21.919Z,92.94
2022-08-05T09:24:19.926Z,93.24
2022-08-05T09:25:24.441Z,94.39
2022-08-05T09:26:22.364Z,95.20
2022-08-05T09:28:06.028Z,95.35
2022-08-05T09:28:21.327Z,96.15
2022-08-05T09:29:19.896Z,96.66
2022-08-05T09:30:23.531Z,97.21
2022-08-05T09:31:43.406Z,97.87
2022-08-05T09:32:40.812Z,98.47
2022-08-05T09:33:20.939Z,98.88
2022-08-05T09:34:19.837Z,99.18
2022-08-05T09:35:27.180Z,99.33
2022-08-05T09:36:20.787Z,99.63
2022-08-05T09:38:17.046Z,99.53
2022-08-05T09:38:29.499Z,99.68
2022-08-05T09:39:22.169Z,99.98
2022-08-05T09:40:19.883Z,99.99
2022-08-05T09:41:19.831Z,99.99
2022-08-05T09:42:23.171Z,99.99
2022-08-05T09:43:19.869Z,99.99
2022-08-05T09:44:19.965Z,99.99
2022-08-05T09:46:07.276Z,99.99
2022-08-05T09:46:20.824Z,99.99
2022-08-05T09:47:20.855Z,99.99
2022-08-05T09:48:19.672Z,99.99
2022-08-05T09:49:19.999Z,99.99
2022-08-05T09:50:37.666Z,99.99
2022-08-05T09:51:20.804Z,99.99
2022-08-05T09:52:19.709Z,99.99
2022-08-05T09:53:25.855Z,99.99
2022-08-05T09:54:29.032Z,99.99
2022-08-05T09:55:56.261Z,99.99
2022-08-05T09:56:20.579Z,99.99
2022-08-05T09:57:20.689Z,99.99
2022-08-05T09:58:19.806Z,99.99
2022-08-05T09:59:19.796Z,99.99
2022-08-05T10:00:19.949Z,99.99
2022-08-05T10:01:32.140Z,99.99
2022-08-05T10:02:20.634Z,99.99
2022-08-05T10:03:20.320Z,99.99
2022-08-05T10:04:19.626Z,99.99
2022-08-05T10:05:20.509Z,99.99
2022-08-05T10:06:19.559Z,99.99
2022-08-05T10:07:50.392Z,99.99
2022-08-05T10:08:36.963Z,99.99
2022-08-05T10:09:25.163Z,99.99
2022-08-05T10:10:28.342Z,99.99
2022-08-05T10:11:20.521Z,99.99
2022-08-05T10:12:33.309Z,99.99
2022-08-05T10:13:20.409Z,99.99
2022-08-05T10:14:19.527Z,99.99
2022-08-05T10:15:20.165Z,99.99
2022-08-05T10:16:19.378Z,99.99
2022-08-05T10:17:37.592Z,99.99
2022-08-05T10:18:20.474Z,99.88
2022-08-05T10:19:23.553Z,99.84
2022-08-05T10:20:20.336Z,99.84
2022-08-05T10:21:19.413Z,99.99
2022-08-05T10:22:29.513Z,99.84
2022-08-05T10:23:34.400Z,99.99
2022-08-05T10:24:22.252Z,99.99
2022-08-05T10:25:19.522Z,99.63
2022-08-05T10:26:19.422Z,99.53
2022-08-05T10:27:20.429Z,99.73
2022-08-05T10:28:29.595Z,99.73
2022-08-05T10:30:05.794Z,99.58
2022-08-05T10:31:20.300Z,99.68
2022-08-05T10:32:53.122Z,99.38
2022-08-05T10:32:55.377Z,99.58
2022-08-05T10:33:20.180Z,99.24
2022-08-05T10:34:19.275Z,99.13
2022-08-05T10:35:20.440Z,99.08
2022-08-05T10:36:23.456Z,98.88
2022-08-05T10:37:19.252Z,98.33
2022-08-05T10:38:19.303Z,98.22
2022-08-05T10:39:25.045Z,98.43
2022-08-05T10:40:20.555Z,98.28
2022-08-05T10:41:23.513Z,98.22
2022-08-05T10:42:22.717Z,98.08
2022-08-05T10:43:20.431Z,97.72
2022-08-05T10:44:19.099Z,97.42
2022-08-05T10:45:23.749Z,97.12
2022-08-05T10:46:23.916Z,95.75
2022-08-05T10:47:26.258Z,96.05
2022-08-05T10:48:31.422Z,95.45
2022-08-05T10:49:26.994Z,96.05
2022-08-05T10:50:35.400Z,96.25
2022-08-05T10:51:22.314Z,96.45
2022-08-05T10:52:18.974Z,96.66
2022-08-05T10:53:19.323Z,96.25
2022-08-05T10:54:28.431Z,96.05
2022-08-05T10:55:20.070Z,95.85
2022-08-05T10:56:21.202Z,94.84
2022-08-05T10:57:20.491Z,95.04
2022-08-05T10:58:18.915Z,95.55
2022-08-05T11:00:04.398Z,96.05
2022-08-05T11:00:22.687Z,96.45
2022-08-05T11:01:28.417Z,96.86
2022-08-05T11:02:34.679Z,97.52
2022-08-05T11:03:25.563Z,97.42
2022-08-05T11:04:21.344Z,96.61
2022-08-05T11:05:19.049Z,95.81
2022-08-05T11:06:18.818Z,94.59
2022-08-05T11:07:18.825Z,94.59
2022-08-05T11:08:34.283Z,94.95
2022-08-05T11:09:24.193Z,95.36
2022-08-05T11:10:20.335Z,94.55
2022-08-05T11:11:18.785Z,94.45
2022-08-05T11:12:18.795Z,94.25
2022-08-05T11:13:18.756Z,94.95
2022-08-05T11:14:18.813Z,93.89
2022-08-05T11:15:20.161Z,94.19
2022-08-05T11:16:18.821Z,94.85
2022-08-05T11:17:57.778Z,95.15
2022-08-05T11:18:19.710Z,94.75
2022-08-05T11:20:16.683Z,94.55
2022-08-05T11:20:19.784Z,94.55
2022-08-05T11:21:18.667Z,94.95
2022-08-05T11:22:18.819Z,94.45
2022-08-05T11:23:18.655Z,93.85
2022-08-05T11:24:30.576Z,93.74
2022-08-05T11:26:05.499Z,92.23
2022-08-05T11:26:28.503Z,91.13
2022-08-05T11:27:19.747Z,90.92
2022-08-05T11:28:19.021Z,91.13
2022-08-05T11:29:18.574Z,91.73
2022-08-05T11:30:18.600Z,91.02
2022-08-05T11:31:54.242Z,91.53
2022-08-05T11:32:19.548Z,90.62
2022-08-05T11:33:21.045Z,90.88
2022-08-05T11:34:22.727Z,90.17
2022-08-05T11:35:19.580Z,90.48
2022-08-05T11:36:34.471Z,90.28
2022-08-05T11:38:29.748Z,90.58
2022-08-05T11:38:37.003Z,90.48
2022-08-05T11:39:19.589Z,90.88
2022-08-05T11:40:18.515Z,90.07
2022-08-05T11:41:54.495Z,89.97
2022-08-05T11:42:19.603Z,90.48
2022-08-05T11:43:18.586Z,90.88
2022-08-05T11:44:40.431Z,89.87
2022-08-05T11:46:15.593Z,89.43
2022-08-05T11:46:32.178Z,89.03
2022-08-05T11:47:21.953Z,88.92
2022-08-05T11:48:18.552Z,89.93
2022-08-05T11:49:18.397Z,90.44
2022-08-05T11:50:18.407Z,89.73
2022-08-05T11:51:43.545Z,89.53
2022-08-05T11:52:19.650Z,88.62
2022-08-05T11:53:18.432Z,89.43
2022-08-05T11:54:18.443Z,88.98
2022-08-05T11:55:18.343Z,88.88
2022-08-05T11:56:18.662Z,87.87
2022-08-05T11:57:25.501Z,88.58
2022-08-05T11:58:19.551Z,87.77
2022-08-05T11:59:21.361Z,88.18
2022-08-05T12:00:18.485Z,88.43
2022-08-05T12:01:19.116Z,86.72
2022-08-05T12:02:24.207Z,84.51
2022-08-05T12:03:28.561Z,84.21
2022-08-05T12:04:21.216Z,85.22
2022-08-05T12:05:18.675Z,84.91
2022-08-05T12:06:18.613Z,86.43
2022-08-05T12:07:18.182Z,86.48
2022-08-05T12:08:19.299Z,85.48
2022-08-05T12:09:19.930Z,85.58
2022-08-05T12:10:18.134Z,83.26
2022-08-05T12:11:20.525Z,82.86
2022-08-05T12:12:18.303Z,82.56
2022-08-05T12:13:27.703Z,83.37
2022-08-05T12:14:19.163Z,83.73
2022-08-05T12:15:18.362Z,82.72
2022-08-05T12:16:18.166Z,84.03
2022-08-05T12:18:00.734Z,83.53
2022-08-05T12:18:24.346Z,81.52
2022-08-05T12:20:16.846Z,83.87
2022-08-05T12:20:28.838Z,82.36
2022-08-05T12:21:19.306Z,81.85
2022-08-05T12:22:20.105Z,82.66
2022-08-05T12:23:19.968Z,81.76
2022-08-05T12:24:18.117Z,81.96
2022-08-05T12:25:18.021Z,83.06
2022-08-05T12:26:18.213Z,83.37
2022-08-05T12:27:32.946Z,82.66
2022-08-05T12:28:19.020Z,83.71
2022-08-05T12:29:22.775Z,83.71
2022-08-05T12:30:18.990Z,83.87
2022-08-05T12:31:23.726Z,83.47
2022-08-05T12:32:19.285Z,82.76
2022-08-05T12:33:27.589Z,83.76
2022-08-05T12:34:21.218Z,83.03
2022-08-05T12:35:21.575Z,83.17
2022-08-05T12:36:17.927Z,83.03
2022-08-05T12:37:21.602Z,82.52
2022-08-05T12:38:18.098Z,82.42
2022-08-05T12:39:17.941Z,83.12
2022-08-05T12:40:26.923Z,82.38
2022-08-05T12:41:18.828Z,82.78
2022-08-05T12:42:18.018Z,80.88
2022-08-05T12:43:20.658Z,80.88
2022-08-05T12:44:32.853Z,79.87
2022-08-05T12:45:18.819Z,79.93
2022-08-05T12:46:17.804Z,80.54
2022-08-05T12:47:17.865Z,79.69
2022-08-05T12:48:27.366Z,79.55
2022-08-05T12:49:18.980Z,79.55
2022-08-05T12:50:17.715Z,78.55
2022-08-05T12:52:10.028Z,79.55
2022-08-05T12:52:25.370Z,78.02
2022-08-05T12:53:18.710Z,79.12
2022-08-05T12:54:23.614Z,76.17
2022-08-05T12:55:22.004Z,75.57
2022-08-05T12:56:35.253Z,75.07
2022-08-05T12:57:18.762Z,75.77